sensor_id;sensor_type;location;lat;lon;timestamp;temperature;humidity
8114;DHT22;4099;52.684;9.918;2022-08-19T00:02:23;18.50;99.90
8114;DHT22;4099;52.684;9.918;2022-08-19T00:07:25;18.60;99.90
8114;DHT22;4099;52.684;9.918;2022-08-19T00:12:28;18.70;99.90
8114;DHT22;4099;52.684;9.918;2022-08-19T00:17:30;18.60;99.90
8114;DHT22;4099;52.684;9.918;2022-08-19T00:22:32;18.70;99.90
8114;DHT22;4099;52.684;9.918;2022-08-19T00:27:37;18.80;99.90
8114;DHT22;4099;52.684;9.918;2022-08-19T00:32:39;18.70;99.90
8114;DHT22;4099;52.684;9.918;2022-08-19T00:37:41;18.70;99.90
8114;DHT22;4099;52.684;9.918;2022-08-19T00:42:45;18.70;99.90
8114;DHT22;4099;52.684;9.918;2022-08-19T00:47:46;18.60;99.90
8114;DHT22;4099;52.684;9.918;2022-08-19T00:52:50;18.60;99.90
8114;DHT22;4099;52.684;9.918;2022-08-19T00:57:59;18.70;99.90
8114;DHT22;4099;52.684;9.918;2022-08-19T01:03:01;18.60;99.90
8114;DHT22;4099;52.684;9.918;2022-08-19T01:08:04;18.60;99.90
8114;DHT22;4099;52.684;9.918;2022-08-19T01:13:08;18.40;99.90
8114;DHT22;4099;52.684;9.918;2022-08-19T01:18:13;18.40;99.90
8114;DHT22;4099;52.684;9.918;2022-08-19T01:23:17;18.30;99.90
8114;DHT22;4099;52.684;9.918;2022-08-19T01:28:20;18.20;99.90
8114;DHT22;4099;52.684;9.918;2022-08-19T01:33:23;18.10;99.90
8114;DHT22;4099;52.684;9.918;2022-08-19T01:38:27;17.90;99.90
8114;DHT22;4099;52.684;9.918;2022-08-19T01:43:32;17.90;99.90
8114;DHT22;4099;52.684;9.918;2022-08-19T01:48:37;17.90;99.90
8114;DHT22;4099;52.684;9.918;2022-08-19T01:53:41;17.80;99.90
8114;DHT22;4099;52.684;9.918;2022-08-19T01:58:46;17.70;99.90
8114;DHT22;4099;52.684;9.918;2022-08-19T02:03:49;17.60;99.90
8114;DHT22;4099;52.684;9.918;2022-08-19T02:08:54;17.50;99.90
8114;DHT22;4099;52.684;9.918;2022-08-19T02:13:56;17.50;99.90
8114;DHT22;4099;52.684;9.918;2022-08-19T02:18:58;17.50;99.90
8114;DHT22;4099;52.684;9.918;2022-08-19T02:24:02;17.40;99.90
8114;DHT22;4099;52.684;9.918;2022-08-19T02:29:04;17.40;99.90
8114;DHT22;4099;52.684;9.918;2022-08-19T02:34:06;17.30;99.90
8114;DHT22;4099;52.684;9.918;2022-08-19T02:39:09;17.30;99.90
8114;DHT22;4099;52.684;9.918;2022-08-19T02:44:11;17.30;99.90
8114;DHT22;4099;52.684;9.918;2022-08-19T02:49:13;17.20;99.90
8114;DHT22;4099;52.684;9.918;2022-08-19T02:54:18;17.20;99.90
8114;DHT22;4099;52.684;9.918;2022-08-19T02:59:19;17.10;99.90
8114;DHT22;4099;52.684;9.918;2022-08-19T03:04:21;17.00;99.90
8114;DHT22;4099;52.684;9.918;2022-08-19T03:09:26;16.90;99.90
8114;DHT22;4099;52.684;9.918;2022-08-19T03:14:30;16.90;99.90
8114;DHT22;4099;52.684;9.918;2022-08-19T03:19:31;16.80;99.90
8114;DHT22;4099;52.684;9.918;2022-08-19T03:24:35;16.80;99.90
8114;DHT22;4099;52.684;9.918;2022-08-19T03:29:37;16.90;99.90
8114;DHT22;4099;52.684;9.918;2022-08-19T03:34:39;16.70;99.90
8114;DHT22;4099;52.684;9.918;2022-08-19T03:39:42;16.60;99.90
8114;DHT22;4099;52.684;9.918;2022-08-19T03:44:44;16.50;99.90
8114;DHT22;4099;52.684;9.918;2022-08-19T03:49:46;16.60;99.90
8114;DHT22;4099;52.684;9.918;2022-08-19T03:54:49;16.80;99.90
8114;DHT22;4099;52.684;9.918;2022-08-19T03:59:51;16.80;99.90
8114;DHT22;4099;52.684;9.918;2022-08-19T04:04:53;16.80;99.90
8114;DHT22;4099;52.684;9.918;2022-08-19T04:09:57;16.90;99.90
8114;DHT22;4099;52.684;9.918;2022-08-19T04:14:59;17.00;99.90
8114;DHT22;4099;52.684;9.918;2022-08-19T04:20:01;17.10;99.90
8114;DHT22;4099;52.684;9.918;2022-08-19T04:25:05;17.20;99.90
8114;DHT22;4099;52.684;9.918;2022-08-19T04:30:08;17.30;99.90
8114;DHT22;4099;52.684;9.918;2022-08-19T04:35:10;17.40;99.90
8114;DHT22;4099;52.684;9.918;2022-08-19T04:40:13;17.40;99.90
8114;DHT22;4099;52.684;9.918;2022-08-19T04:45:32;17.50;99.90
8114;DHT22;4099;52.684;9.918;2022-08-19T04:50:35;17.60;99.90
8114;DHT22;4099;52.684;9.918;2022-08-19T04:55:40;17.60;99.90
8114;DHT22;4099;52.684;9.918;2022-08-19T05:00:42;17.60;99.90
8114;DHT22;4099;52.684;9.918;2022-08-19T05:05:46;17.60;99.90
8114;DHT22;4099;52.684;9.918;2022-08-19T05:10:51;17.80;99.90
8114;DHT22;4099;52.684;9.918;2022-08-19T05:15:54;17.80;99.90
8114;DHT22;4099;52.684;9.918;2022-08-19T05:20:57;17.80;99.90
8114;DHT22;4099;52.684;9.918;2022-08-19T05:26:17;17.90;99.90
8114;DHT22;4099;52.684;9.918;2022-08-19T05:31:19;17.90;99.90
8114;DHT22;4099;52.684;9.918;2022-08-19T05:36:21;18.10;99.90
8114;DHT22;4099;52.684;9.918;2022-08-19T05:41:24;18.30;99.90
8114;DHT22;4099;52.684;9.918;2022-08-19T05:46:29;18.40;99.90
8114;DHT22;4099;52.684;9.918;2022-08-19T05:51:31;18.30;99.90
8114;DHT22;4099;52.684;9.918;2022-08-19T05:56:35;18.40;99.90
8114;DHT22;4099;52.684;9.918;2022-08-19T06:01:41;18.50;99.90
8114;DHT22;4099;52.684;9.918;2022-08-19T06:06:42;18.50;99.90
8114;DHT22;4099;52.684;9.918;2022-08-19T06:11:47;18.50;99.90
8114;DHT22;4099;52.684;9.918;2022-08-19T06:16:53;18.50;99.90
8114;DHT22;4099;52.684;9.918;2022-08-19T06:21:56;18.60;99.90
8114;DHT22;4099;52.684;9.918;2022-08-19T06:27:00;18.80;99.90
8114;DHT22;4099;52.684;9.918;2022-08-19T06:32:03;18.90;99.90
8114;DHT22;4099;52.684;9.918;2022-08-19T06:37:05;18.90;99.90
8114;DHT22;4099;52.684;9.918;2022-08-19T06:42:09;18.80;99.90
8114;DHT22;4099;52.684;9.918;2022-08-19T06:47:15;18.60;99.90
8114;DHT22;4099;52.684;9.918;2022-08-19T06:52:18;18.60;99.90
8114;DHT22;4099;52.684;9.918;2022-08-19T06:57:21;18.60;99.90
8114;DHT22;4099;52.684;9.918;2022-08-19T07:02:23;18.80;99.90
8114;DHT22;4099;52.684;9.918;2022-08-19T07:07:26;19.00;99.90
8114;DHT22;4099;52.684;9.918;2022-08-19T07:12:31;18.90;99.90
8114;DHT22;4099;52.684;9.918;2022-08-19T07:17:34;18.90;99.90
8114;DHT22;4099;52.684;9.918;2022-08-19T07:22:37;18.90;99.90
8114;DHT22;4099;52.684;9.918;2022-08-19T07:27:41;18.90;99.90
8114;DHT22;4099;52.684;9.918;2022-08-19T07:32:42;19.20;99.90
8114;DHT22;4099;52.684;9.918;2022-08-19T07:37:44;19.20;99.90
8114;DHT22;4099;52.684;9.918;2022-08-19T07:42:47;19.40;99.90
8114;DHT22;4099;52.684;9.918;2022-08-19T07:47:49;19.40;99.90
8114;DHT22;4099;52.684;9.918;2022-08-19T07:52:51;19.50;99.90
8114;DHT22;4099;52.684;9.918;2022-08-19T07:57:54;19.70;99.90
8114;DHT22;4099;52.684;9.918;2022-08-19T08:02:56;19.50;99.90
8114;DHT22;4099;52.684;9.918;2022-08-19T08:07:58;19.80;99.90
8114;DHT22;4099;52.684;9.918;2022-08-19T08:13:20;20.20;99.90
8114;DHT22;4099;52.684;9.918;2022-08-19T08:18:22;20.20;99.90
8114;DHT22;4099;52.684;9.918;2022-08-19T08:23:25;20.30;99.90
8114;DHT22;4099;52.684;9.918;2022-08-19T08:28:28;20.30;99.90
8114;DHT22;4099;52.684;9.918;2022-08-19T08:33:30;20.50;99.90
8114;DHT22;4099;52.684;9.918;2022-08-19T08:38:33;20.50;99.90
8114;DHT22;4099;52.684;9.918;2022-08-19T08:43:38;20.30;99.90
8114;DHT22;4099;52.684;9.918;2022-08-19T08:48:46;20.40;99.90
8114;DHT22;4099;52.684;9.918;2022-08-19T08:53:51;20.60;99.90
8114;DHT22;4099;52.684;9.918;2022-08-19T08:58:58;20.80;99.90
8114;DHT22;4099;52.684;9.918;2022-08-19T09:04:02;20.90;99.90
8114;DHT22;4099;52.684;9.918;2022-08-19T09:09:12;21.10;99.90
8114;DHT22;4099;52.684;9.918;2022-08-19T09:14:34;21.40;99.90
8114;DHT22;4099;52.684;9.918;2022-08-19T09:19:48;21.20;99.90
8114;DHT22;4099;52.684;9.918;2022-08-19T09:24:51;21.30;99.90
8114;DHT22;4099;52.684;9.918;2022-08-19T09:29:55;21.50;99.90
8114;DHT22;4099;52.684;9.918;2022-08-19T09:34:57;21.80;99.90
8114;DHT22;4099;52.684;9.918;2022-08-19T09:40:04;22.00;92.40
8114;DHT22;4099;52.684;9.918;2022-08-19T09:45:09;21.90;65.60
8114;DHT22;4099;52.684;9.918;2022-08-19T09:50:12;22.10;17.40
8114;DHT22;4099;52.684;9.918;2022-08-19T09:55:13;22.40;54.20
8114;DHT22;4099;52.684;9.918;2022-08-19T10:00:18;22.80;1.00
8114;DHT22;4099;52.684;9.918;2022-08-19T10:05:20;22.70;1.00
8114;DHT22;4099;52.684;9.918;2022-08-19T10:10:41;22.90;42.30
8114;DHT22;4099;52.684;9.918;2022-08-19T10:15:45;23.20;1.00
8114;DHT22;4099;52.684;9.918;2022-08-19T10:20:48;23.20;1.00
8114;DHT22;4099;52.684;9.918;2022-08-19T10:25:51;23.20;1.00
8114;DHT22;4099;52.684;9.918;2022-08-19T10:30:55;23.10;1.00
8114;DHT22;4099;52.684;9.918;2022-08-19T10:35:59;22.90;1.00
8114;DHT22;4099;52.684;9.918;2022-08-19T10:41:08;23.20;16.00
8114;DHT22;4099;52.684;9.918;2022-08-19T10:46:14;23.70;1.00
8114;DHT22;4099;52.684;9.918;2022-08-19T10:51:17;23.30;1.00
8114;DHT22;4099;52.684;9.918;2022-08-19T10:56:36;23.40;1.00
8114;DHT22;4099;52.684;9.918;2022-08-19T11:01:59;24.00;1.00
8114;DHT22;4099;52.684;9.918;2022-08-19T11:07:02;24.20;1.00
8114;DHT22;4099;52.684;9.918;2022-08-19T11:12:04;24.20;1.00
8114;DHT22;4099;52.684;9.918;2022-08-19T11:17:07;24.30;1.00
8114;DHT22;4099;52.684;9.918;2022-08-19T11:22:09;24.10;1.00
8114;DHT22;4099;52.684;9.918;2022-08-19T11:27:11;24.30;1.00
8114;DHT22;4099;52.684;9.918;2022-08-19T11:32:14;24.60;1.00
8114;DHT22;4099;52.684;9.918;2022-08-19T11:37:16;24.70;1.00
8114;DHT22;4099;52.684;9.918;2022-08-19T11:42:18;24.70;1.00
8114;DHT22;4099;52.684;9.918;2022-08-19T11:47:38;24.80;1.00
8114;DHT22;4099;52.684;9.918;2022-08-19T11:52:40;25.40;1.00
8114;DHT22;4099;52.684;9.918;2022-08-19T11:57:44;25.70;1.00
8114;DHT22;4099;52.684;9.918;2022-08-19T12:02:48;25.70;1.00
8114;DHT22;4099;52.684;9.918;2022-08-19T12:07:50;26.00;1.00
8114;DHT22;4099;52.684;9.918;2022-08-19T12:12:52;25.90;1.00
8114;DHT22;4099;52.684;9.918;2022-08-19T12:17:55;25.00;1.00
8114;DHT22;4099;52.684;9.918;2022-08-19T12:22:58;25.20;1.00
8114;DHT22;4099;52.684;9.918;2022-08-19T12:28:00;25.80;1.00
8114;DHT22;4099;52.684;9.918;2022-08-19T12:33:03;25.50;1.00
8114;DHT22;4099;52.684;9.918;2022-08-19T12:38:05;25.90;1.00
8114;DHT22;4099;52.684;9.918;2022-08-19T12:43:07;27.00;1.00
8114;DHT22;4099;52.684;9.918;2022-08-19T12:48:11;27.80;99.90
8114;DHT22;4099;52.684;9.918;2022-08-19T12:53:13;28.00;99.90
8114;DHT22;4099;52.684;9.918;2022-08-19T12:58:15;28.80;1.00
8114;DHT22;4099;52.684;9.918;2022-08-19T13:03:18;29.00;1.00
8114;DHT22;4099;52.684;9.918;2022-08-19T13:08:20;28.10;1.00
8114;DHT22;4099;52.684;9.918;2022-08-19T13:13:22;27.10;1.00
8114;DHT22;4099;52.684;9.918;2022-08-19T13:18:27;26.70;1.00
8114;DHT22;4099;52.684;9.918;2022-08-19T13:23:29;26.70;1.00
8114;DHT22;4099;52.684;9.918;2022-08-19T13:28:31;26.90;99.90
8114;DHT22;4099;52.684;9.918;2022-08-19T13:33:48;26.60;1.00
8114;DHT22;4099;52.684;9.918;2022-08-19T13:38:50;27.80;1.00
8114;DHT22;4099;52.684;9.918;2022-08-19T13:43:52;28.80;99.90
8114;DHT22;4099;52.684;9.918;2022-08-19T13:48:56;28.40;1.00
8114;DHT22;4099;52.684;9.918;2022-08-19T13:53:57;29.00;1.00
8114;DHT22;4099;52.684;9.918;2022-08-19T13:58:59;29.20;1.00
8114;DHT22;4099;52.684;9.918;2022-08-19T14:04:03;29.50;1.00
8114;DHT22;4099;52.684;9.918;2022-08-19T14:09:06;29.60;1.00
8114;DHT22;4099;52.684;9.918;2022-08-19T14:14:08;30.40;99.90
8114;DHT22;4099;52.684;9.918;2022-08-19T14:19:11;30.20;1.00
8114;DHT22;4099;52.684;9.918;2022-08-19T14:24:13;29.10;1.00
8114;DHT22;4099;52.684;9.918;2022-08-19T14:29:15;28.60;1.00
8114;DHT22;4099;52.684;9.918;2022-08-19T14:34:18;29.10;1.00
8114;DHT22;4099;52.684;9.918;2022-08-19T14:39:20;30.20;1.00
8114;DHT22;4099;52.684;9.918;2022-08-19T14:44:22;30.60;1.00
8114;DHT22;4099;52.684;9.918;2022-08-19T14:49:25;30.20;1.00
8114;DHT22;4099;52.684;9.918;2022-08-19T14:54:27;29.20;1.00
8114;DHT22;4099;52.684;9.918;2022-08-19T14:59:32;28.80;1.00
8114;DHT22;4099;52.684;9.918;2022-08-19T15:04:37;27.70;1.00
8114;DHT22;4099;52.684;9.918;2022-08-19T15:09:39;27.70;1.00
8114;DHT22;4099;52.684;9.918;2022-08-19T15:14:42;27.50;1.00
8114;DHT22;4099;52.684;9.918;2022-08-19T15:19:46;26.80;1.00
8114;DHT22;4099;52.684;9.918;2022-08-19T15:24:48;26.60;86.70
8114;DHT22;4099;52.684;9.918;2022-08-19T15:29:50;26.50;1.00
8114;DHT22;4099;52.684;9.918;2022-08-19T15:34:53;26.50;1.00
8114;DHT22;4099;52.684;9.918;2022-08-19T15:39:56;26.40;1.00
8114;DHT22;4099;52.684;9.918;2022-08-19T15:44:58;26.50;1.00
8114;DHT22;4099;52.684;9.918;2022-08-19T15:50:06;26.60;99.90
8114;DHT22;4099;52.684;9.918;2022-08-19T15:55:09;26.70;99.90
8114;DHT22;4099;52.684;9.918;2022-08-19T16:00:11;26.70;99.90
8114;DHT22;4099;52.684;9.918;2022-08-19T16:05:33;26.60;99.90
8114;DHT22;4099;52.684;9.918;2022-08-19T16:10:53;26.40;99.90
8114;DHT22;4099;52.684;9.918;2022-08-19T16:15:55;26.40;99.90
8114;DHT22;4099;52.684;9.918;2022-08-19T16:20:59;26.50;1.00
8114;DHT22;4099;52.684;9.918;2022-08-19T16:26:01;26.60;1.00
8114;DHT22;4099;52.684;9.918;2022-08-19T16:31:04;26.20;99.90
8114;DHT22;4099;52.684;9.918;2022-08-19T16:36:08;26.00;40.90
8114;DHT22;4099;52.684;9.918;2022-08-19T16:41:10;25.70;93.10
8114;DHT22;4099;52.684;9.918;2022-08-19T16:46:14;25.60;49.30
8114;DHT22;4099;52.684;9.918;2022-08-19T16:51:18;25.50;1.00
8114;DHT22;4099;52.684;9.918;2022-08-19T16:56:22;25.40;1.00
8114;DHT22;4099;52.684;9.918;2022-08-19T17:01:25;25.30;1.00
8114;DHT22;4099;52.684;9.918;2022-08-19T17:06:29;25.30;1.00
8114;DHT22;4099;52.684;9.918;2022-08-19T17:11:33;25.20;99.90
8114;DHT22;4099;52.684;9.918;2022-08-19T17:16:35;25.30;99.90
8114;DHT22;4099;52.684;9.918;2022-08-19T17:21:39;25.30;35.80
8114;DHT22;4099;52.684;9.918;2022-08-19T17:26:41;25.40;99.90
8114;DHT22;4099;52.684;9.918;2022-08-19T17:31:43;25.30;1.00
8114;DHT22;4099;52.684;9.918;2022-08-19T17:36:47;25.40;1.00
8114;DHT22;4099;52.684;9.918;2022-08-19T17:41:49;25.40;1.00
8114;DHT22;4099;52.684;9.918;2022-08-19T17:46:53;25.20;1.00
8114;DHT22;4099;52.684;9.918;2022-08-19T17:51:57;24.90;73.10
8114;DHT22;4099;52.684;9.918;2022-08-19T17:57:00;24.60;1.00
8114;DHT22;4099;52.684;9.918;2022-08-19T18:02:03;24.30;1.00
8114;DHT22;4099;52.684;9.918;2022-08-19T18:07:07;23.90;1.00
8114;DHT22;4099;52.684;9.918;2022-08-19T18:12:11;23.50;1.00
8114;DHT22;4099;52.684;9.918;2022-08-19T18:17:16;23.40;1.00
8114;DHT22;4099;52.684;9.918;2022-08-19T18:22:26;23.20;1.00
8114;DHT22;4099;52.684;9.918;2022-08-19T18:27:28;22.80;1.00
8114;DHT22;4099;52.684;9.918;2022-08-19T18:32:32;22.50;1.00
8114;DHT22;4099;52.684;9.918;2022-08-19T18:37:36;22.20;1.00
8114;DHT22;4099;52.684;9.918;2022-08-19T18:42:41;22.10;1.00
8114;DHT22;4099;52.684;9.918;2022-08-19T18:48:01;21.70;1.00
8114;DHT22;4099;52.684;9.918;2022-08-19T18:53:22;21.40;1.00
8114;DHT22;4099;52.684;9.918;2022-08-19T18:58:26;21.10;1.00
8114;DHT22;4099;52.684;9.918;2022-08-19T19:03:31;20.90;1.00
8114;DHT22;4099;52.684;9.918;2022-08-19T19:08:35;20.70;8.40
8114;DHT22;4099;52.684;9.918;2022-08-19T19:13:38;20.60;15.60
8114;DHT22;4099;52.684;9.918;2022-08-19T19:18:41;20.50;38.80
8114;DHT22;4099;52.684;9.918;2022-08-19T19:23:45;20.20;83.90
8114;DHT22;4099;52.684;9.918;2022-08-19T19:28:48;19.90;99.90
8114;DHT22;4099;52.684;9.918;2022-08-19T19:33:54;19.70;99.90
8114;DHT22;4099;52.684;9.918;2022-08-19T19:38:58;19.70;99.90
8114;DHT22;4099;52.684;9.918;2022-08-19T19:44:00;19.80;99.90
8114;DHT22;4099;52.684;9.918;2022-08-19T19:49:03;19.90;99.90
8114;DHT22;4099;52.684;9.918;2022-08-19T19:54:09;19.90;99.90
8114;DHT22;4099;52.684;9.918;2022-08-19T19:59:16;19.80;99.90
8114;DHT22;4099;52.684;9.918;2022-08-19T20:04:19;19.80;99.90
8114;DHT22;4099;52.684;9.918;2022-08-19T20:09:23;19.50;99.90
8114;DHT22;4099;52.684;9.918;2022-08-19T20:14:27;19.20;99.90
8114;DHT22;4099;52.684;9.918;2022-08-19T20:19:32;19.10;99.90
8114;DHT22;4099;52.684;9.918;2022-08-19T20:24:38;18.90;99.90
8114;DHT22;4099;52.684;9.918;2022-08-19T20:29:42;18.80;99.90
8114;DHT22;4099;52.684;9.918;2022-08-19T20:34:44;18.70;99.90
8114;DHT22;4099;52.684;9.918;2022-08-19T20:39:50;18.60;99.90
8114;DHT22;4099;52.684;9.918;2022-08-19T20:44:52;18.50;99.90
8114;DHT22;4099;52.684;9.918;2022-08-19T20:49:54;18.50;99.90
8114;DHT22;4099;52.684;9.918;2022-08-19T20:55:00;18.40;99.90
8114;DHT22;4099;52.684;9.918;2022-08-19T21:00:04;18.50;99.90
8114;DHT22;4099;52.684;9.918;2022-08-19T21:05:08;18.40;99.90
8114;DHT22;4099;52.684;9.918;2022-08-19T21:10:12;18.40;99.90
8114;DHT22;4099;52.684;9.918;2022-08-19T21:15:15;18.30;99.90
8114;DHT22;4099;52.684;9.918;2022-08-19T21:20:18;18.30;99.90
8114;DHT22;4099;52.684;9.918;2022-08-19T21:25:21;18.20;99.90
8114;DHT22;4099;52.684;9.918;2022-08-19T21:30:24;18.20;99.90
8114;DHT22;4099;52.684;9.918;2022-08-19T21:35:27;18.20;99.90
8114;DHT22;4099;52.684;9.918;2022-08-19T21:40:31;18.10;99.90
8114;DHT22;4099;52.684;9.918;2022-08-19T21:45:33;18.10;99.90
8114;DHT22;4099;52.684;9.918;2022-08-19T21:50:38;18.10;99.90
8114;DHT22;4099;52.684;9.918;2022-08-19T21:55:41;18.00;99.90
8114;DHT22;4099;52.684;9.918;2022-08-19T22:00:43;18.00;99.90
8114;DHT22;4099;52.684;9.918;2022-08-19T22:05:48;17.90;99.90
8114;DHT22;4099;52.684;9.918;2022-08-19T22:10:52;17.80;99.90
8114;DHT22;4099;52.684;9.918;2022-08-19T22:15:54;18.00;99.90
8114;DHT22;4099;52.684;9.918;2022-08-19T22:20:57;18.20;99.90
8114;DHT22;4099;52.684;9.918;2022-08-19T22:26:00;18.20;99.90
8114;DHT22;4099;52.684;9.918;2022-08-19T22:31:03;18.00;99.90
8114;DHT22;4099;52.684;9.918;2022-08-19T22:36:06;17.80;99.90
8114;DHT22;4099;52.684;9.918;2022-08-19T22:41:10;17.70;99.90
8114;DHT22;4099;52.684;9.918;2022-08-19T22:46:12;17.60;99.90
8114;DHT22;4099;52.684;9.918;2022-08-19T22:51:17;17.50;99.90
8114;DHT22;4099;52.684;9.918;2022-08-19T22:56:39;17.40;99.90
8114;DHT22;4099;52.684;9.918;2022-08-19T23:01:43;17.30;99.90
8114;DHT22;4099;52.684;9.918;2022-08-19T23:06:46;17.20;99.90
8114;DHT22;4099;52.684;9.918;2022-08-19T23:11:49;17.20;99.90
8114;DHT22;4099;52.684;9.918;2022-08-19T23:16:52;17.10;99.90
8114;DHT22;4099;52.684;9.918;2022-08-19T23:21:54;17.00;99.90
8114;DHT22;4099;52.684;9.918;2022-08-19T23:26:58;17.10;99.90
8114;DHT22;4099;52.684;9.918;2022-08-19T23:32:19;17.00;99.90
8114;DHT22;4099;52.684;9.918;2022-08-19T23:37:21;17.10;99.90
8114;DHT22;4099;52.684;9.918;2022-08-19T23:42:26;17.10;99.90
8114;DHT22;4099;52.684;9.918;2022-08-19T23:47:28;17.20;99.90
8114;DHT22;4099;52.684;9.918;2022-08-19T23:52:30;17.20;99.90
8114;DHT22;4099;52.684;9.918;2022-08-19T23:57:34;17.00;99.90
